createdAt,value
2023-01-26T00:02:29.630Z,4.39
2023-01-26T00:07:33.117Z,4.33
2023-01-26T00:12:36.477Z,4.27
2023-01-26T00:17:40.034Z,4.26
2023-01-26T00:22:43.975Z,4.26
2023-01-26T00:27:47.970Z,4.28
2023-01-26T00:32:51.309Z,4.26
2023-01-26T00:37:55.075Z,4.22
2023-01-26T00:42:59.504Z,4.22
2023-01-26T00:48:02.954Z,4.23
2023-01-26T00:53:06.410Z,4.22
2023-01-26T00:58:10.316Z,4.20
2023-01-26T01:03:13.610Z,4.19
2023-01-26T01:08:17.049Z,4.22
2023-01-26T01:13:20.351Z,4.24
2023-01-26T01:18:23.917Z,4.25
2023-01-26T01:23:30.057Z,4.26
2023-01-26T01:28:35.266Z,4.28
2023-01-26T01:33:41.497Z,4.30
2023-01-26T01:38:46.270Z,4.30
2023-01-26T01:43:51.222Z,4.28
2023-01-26T01:49:15.280Z,4.30
2023-01-26T01:54:23.476Z,4.30
2023-01-26T01:59:27.155Z,4.30
2023-01-26T02:04:33.037Z,4.31
2023-01-26T02:09:59.198Z,4.31
2023-01-26T02:15:04.243Z,4.31
2023-01-26T02:20:34.584Z,4.31
2023-01-26T02:26:03.836Z,4.34
2023-01-26T02:31:10.769Z,4.36
2023-01-26T02:36:26.243Z,4.38
2023-01-26T02:41:51.003Z,4.38
2023-01-26T02:47:26.739Z,4.36
2023-01-26T02:52:33.845Z,4.34
2023-01-26T02:57:42.603Z,4.32
2023-01-26T03:02:48.332Z,4.30
2023-01-26T03:07:52.026Z,4.31
2023-01-26T03:12:56.483Z,4.31
2023-01-26T03:18:27.229Z,4.31
2023-01-26T03:24:53.058Z,4.29
2023-01-26T03:29:57.985Z,4.26
2023-01-26T03:35:03.814Z,4.25
2023-01-26T03:40:29.609Z,4.26
2023-01-26T03:45:51.997Z,4.26
2023-01-26T03:51:15.722Z,4.27
2023-01-26T03:56:23.221Z,4.24
2023-01-26T04:01:28.359Z,4.22
2023-01-26T04:06:55.667Z,4.23
2023-01-26T04:11:59.834Z,4.26
2023-01-26T04:17:23.312Z,4.31
2023-01-26T04:22:26.872Z,4.33
2023-01-26T04:27:35.180Z,4.35
2023-01-26T04:32:40.413Z,4.31
2023-01-26T04:37:44.481Z,4.28
2023-01-26T04:42:48.192Z,4.25
2023-01-26T04:47:52.395Z,4.14
2023-01-26T04:52:56.263Z,4.07
2023-01-26T04:57:59.973Z,4.07
2023-01-26T05:03:08.953Z,4.10
2023-01-26T05:08:14.716Z,4.15
2023-01-26T05:13:20.728Z,4.16
2023-01-26T05:18:50.660Z,4.15
2023-01-26T05:24:08.729Z,4.17
2023-01-26T05:29:30.608Z,4.19
2023-01-26T05:34:34.087Z,4.19
2023-01-26T05:39:37.867Z,4.19
2023-01-26T05:44:43.225Z,4.18
2023-01-26T05:49:49.316Z,4.16
2023-01-26T05:55:01.223Z,4.14
2023-01-26T06:00:06.419Z,4.12
2023-01-26T06:05:17.759Z,4.09
2023-01-26T06:10:22.042Z,4.10
2023-01-26T06:15:35.925Z,4.10
2023-01-26T06:20:40.184Z,4.10
2023-01-26T06:25:43.758Z,4.08
2023-01-26T06:30:47.351Z,4.07
2023-01-26T06:35:51.901Z,4.07
2023-01-26T06:40:55.919Z,4.06
2023-01-26T06:45:59.848Z,4.06
2023-01-26T06:51:06.553Z,4.08
2023-01-26T06:56:09.900Z,4.08
2023-01-26T07:01:34.195Z,4.07
2023-01-26T07:06:37.922Z,4.06
2023-01-26T07:11:41.299Z,4.08
2023-01-26T07:16:44.944Z,4.08
2023-01-26T07:21:48.993Z,4.09
2023-01-26T07:26:52.539Z,4.12
2023-01-26T07:31:55.828Z,4.14
2023-01-26T07:36:59.978Z,4.11
2023-01-26T07:42:05.202Z,4.12
2023-01-26T07:47:22.397Z,4.15
2023-01-26T07:52:26.603Z,4.16
2023-01-26T07:57:32.158Z,4.18
2023-01-26T08:02:36.435Z,4.20
2023-01-26T08:07:41.750Z,4.22
2023-01-26T08:12:47.735Z,4.22
2023-01-26T08:17:54.349Z,4.23
2023-01-26T08:23:00.389Z,4.24
2023-01-26T08:28:06.518Z,4.24
2023-01-26T08:33:10.500Z,4.25
2023-01-26T08:38:47.356Z,4.26
2023-01-26T08:45:06.068Z,4.28
2023-01-26T08:50:14.214Z,4.30
2023-01-26T08:55:18.319Z,4.31
2023-01-26T09:00:23.454Z,4.31
2023-01-26T09:05:28.590Z,4.33
2023-01-26T09:10:34.142Z,4.33
2023-01-26T09:15:38.267Z,4.34
2023-01-26T09:20:42.741Z,4.36
2023-01-26T09:25:47.062Z,4.41
2023-01-26T09:30:52.820Z,4.44
2023-01-26T09:35:56.687Z,4.45
2023-01-26T09:41:15.860Z,4.44
2023-01-26T09:46:24.705Z,4.44
2023-01-26T09:51:45.135Z,4.47
2023-01-26T09:56:48.592Z,4.47
2023-01-26T10:02:21.259Z,4.47
2023-01-26T10:07:27.844Z,4.45
2023-01-26T10:12:37.221Z,4.44
2023-01-26T10:18:03.713Z,4.44
2023-01-26T10:23:18.564Z,4.42
2023-01-26T10:28:35.330Z,4.42
2023-01-26T10:33:47.163Z,4.41
2023-01-26T10:38:53.233Z,4.40
2023-01-26T10:43:59.343Z,4.40
2023-01-26T10:49:24.954Z,4.44
2023-01-26T10:54:29.558Z,4.46
2023-01-26T10:59:43.913Z,4.47
2023-01-26T11:05:10.353Z,4.45
2023-01-26T11:10:36.244Z,4.44
2023-01-26T11:15:44.900Z,4.45
2023-01-26T11:21:00.504Z,4.45
2023-01-26T11:26:34.088Z,4.47
2023-01-26T11:31:48.062Z,4.48
2023-01-26T11:37:01.281Z,4.51
2023-01-26T11:42:43.557Z,4.52
2023-01-26T11:48:08.379Z,4.49
2023-01-26T11:53:43.486Z,4.52
2023-01-26T11:58:55.428Z,4.55
2023-01-26T12:04:01.487Z,4.54
2023-01-26T12:09:27.704Z,4.53
2023-01-26T12:14:47.294Z,4.55
2023-01-26T12:20:24.682Z,4.55
2023-01-26T12:25:41.992Z,4.53
2023-01-26T12:30:58.018Z,4.48
2023-01-26T12:36:40.481Z,4.52
2023-01-26T12:42:05.505Z,4.55
2023-01-26T12:47:36.607Z,4.58
2023-01-26T12:52:51.737Z,4.62
2023-01-26T12:58:06.511Z,4.63
2023-01-26T13:03:24.943Z,4.63
2023-01-26T13:08:31.957Z,4.62
2023-01-26T13:13:56.249Z,4.61
2023-01-26T13:19:02.296Z,4.62
2023-01-26T13:24:32.365Z,4.63
2023-01-26T13:29:51.952Z,4.63
2023-01-26T13:35:05.401Z,4.61
2023-01-26T13:40:22.026Z,4.59
2023-01-26T13:45:57.764Z,4.61
2023-01-26T13:51:03.827Z,4.61
2023-01-26T13:56:22.884Z,4.58
2023-01-26T14:01:26.806Z,4.55
2023-01-26T14:06:31.786Z,4.54
2023-01-26T14:11:36.787Z,4.52
2023-01-26T14:16:40.957Z,4.50
2023-01-26T14:21:56.622Z,4.50
2023-01-26T14:27:02.971Z,4.46
2023-01-26T14:32:16.332Z,4.46
2023-01-26T14:37:21.340Z,4.46
2023-01-26T14:42:25.456Z,4.45
2023-01-26T14:47:31.300Z,4.43
2023-01-26T14:52:40.041Z,4.42
2023-01-26T14:57:43.698Z,4.39
2023-01-26T15:02:50.487Z,4.36
2023-01-26T15:08:02.490Z,4.34
2023-01-26T15:13:08.790Z,4.32
2023-01-26T15:18:14.320Z,4.30
2023-01-26T15:23:36.716Z,4.27
2023-01-26T15:28:41.720Z,4.23
2023-01-26T15:33:50.041Z,4.18
2023-01-26T15:38:58.413Z,4.18
2023-01-26T15:44:03.241Z,4.19
2023-01-26T15:49:07.862Z,4.20
2023-01-26T15:54:13.234Z,4.18
2023-01-26T15:59:19.015Z,4.16
2023-01-26T16:04:23.525Z,4.15
2023-01-26T16:09:26.804Z,4.14
2023-01-26T16:14:30.079Z,4.13
2023-01-26T16:19:35.594Z,4.12
2023-01-26T16:24:40.503Z,4.13
2023-01-26T16:29:43.735Z,4.12
2023-01-26T16:34:46.943Z,4.10
2023-01-26T16:39:50.350Z,4.10
2023-01-26T16:44:53.603Z,4.07
2023-01-26T16:49:56.820Z,4.04
2023-01-26T16:55:00.227Z,4.02
2023-01-26T17:00:04.890Z,4.05
2023-01-26T17:05:14.398Z,4.09
2023-01-26T17:10:21.286Z,4.08
2023-01-26T17:15:25.590Z,4.06
2023-01-26T17:20:29.355Z,4.04
2023-01-26T17:25:32.701Z,4.01
2023-01-26T17:30:36.024Z,3.99
2023-01-26T17:35:39.247Z,3.96
2023-01-26T17:40:42.742Z,3.94
2023-01-26T17:45:47.475Z,3.92
2023-01-26T17:50:51.720Z,3.91
2023-01-26T17:55:56.271Z,3.89
2023-01-26T18:01:00.326Z,3.90
2023-01-26T18:06:05.536Z,3.90
2023-01-26T18:11:12.775Z,3.90
2023-01-26T18:16:19.844Z,3.91
2023-01-26T18:21:27.602Z,3.89
2023-01-26T18:26:35.204Z,3.86
2023-01-26T18:31:41.718Z,5.20
2023-01-26T18:36:45.650Z,9.15
2023-01-26T18:41:49.528Z,9.54
2023-01-26T18:46:53.438Z,7.88
2023-01-26T18:51:57.766Z,6.92
2023-01-26T18:57:02.678Z,6.29
2023-01-26T19:02:08.008Z,5.80
2023-01-26T19:07:12.903Z,5.42
2023-01-26T19:12:18.385Z,5.09
2023-01-26T19:17:22.498Z,4.83
2023-01-26T19:22:27.228Z,4.61
2023-01-26T19:27:33.143Z,4.43
2023-01-26T19:32:37.497Z,4.28
2023-01-26T19:37:41.313Z,4.18
2023-01-26T19:42:45.343Z,4.11
2023-01-26T19:47:49.098Z,4.06
2023-01-26T19:52:53.294Z,4.01
2023-01-26T19:57:57.328Z,4.01
2023-01-26T20:03:03.785Z,4.00
2023-01-26T20:08:07.430Z,3.99
2023-01-26T20:13:12.191Z,3.95
2023-01-26T20:18:15.842Z,3.91
2023-01-26T20:23:22.733Z,3.97
2023-01-26T20:28:27.357Z,6.02
2023-01-26T20:33:31.021Z,9.59
2023-01-26T20:38:36.802Z,8.96
2023-01-26T20:43:46.481Z,7.54
2023-01-26T20:49:02.581Z,6.67
2023-01-26T20:54:07.533Z,7.59
2023-01-26T20:59:13.199Z,10.31
2023-01-26T21:04:18.417Z,8.96
2023-01-26T21:09:24.543Z,7.77
2023-01-26T21:14:28.869Z,6.95
2023-01-26T21:19:32.477Z,6.31
2023-01-26T21:24:36.137Z,5.79
2023-01-26T21:29:40.907Z,5.35
2023-01-26T21:34:44.575Z,5.00
2023-01-26T21:39:49.759Z,4.73
2023-01-26T21:45:14.781Z,4.52
2023-01-26T21:50:40.917Z,4.34
2023-01-26T21:55:46.771Z,4.21
2023-01-26T22:00:52.448Z,4.10
2023-01-26T22:05:57.184Z,4.04
2023-01-26T22:11:02.454Z,3.99
2023-01-26T22:16:08.867Z,3.95
2023-01-26T22:21:16.133Z,3.92
2023-01-26T22:26:22.469Z,3.89
2023-01-26T22:31:28.982Z,3.85
2023-01-26T22:36:33.527Z,3.84
2023-01-26T22:41:37.912Z,3.83
2023-01-26T22:46:41.525Z,3.79
2023-01-26T22:51:44.756Z,3.76
2023-01-26T22:56:48.328Z,3.74
2023-01-26T23:01:51.738Z,3.74
2023-01-26T23:06:55.244Z,3.74
2023-01-26T23:12:01.817Z,4.83
2023-01-26T23:17:05.942Z,8.54
2023-01-26T23:22:09.420Z,9.55
2023-01-26T23:27:13.567Z,7.89
2023-01-26T23:32:17.062Z,6.89
2023-01-26T23:37:22.723Z,6.23
2023-01-26T23:42:26.099Z,5.71
2023-01-26T23:47:29.752Z,5.30
2023-01-26T23:52:33.568Z,4.96
2023-01-26T23:57:36.923Z,4.70
